sensor_id;sensor_type;location;lat;lon;timestamp;temperature;humidity
22416;DHT22;12204;50.600;4.608;2023-01-29T00:04:39;15.80;71.10
22416;DHT22;12204;50.600;4.608;2023-01-29T00:09:42;15.80;71.10
22416;DHT22;12204;50.600;4.608;2023-01-29T00:14:47;15.80;71.10
22416;DHT22;12204;50.600;4.608;2023-01-29T00:19:51;15.80;71.10
22416;DHT22;12204;50.600;4.608;2023-01-29T00:24:55;15.80;71.10
22416;DHT22;12204;50.600;4.608;2023-01-29T00:30:00;15.80;71.00
22416;DHT22;12204;50.600;4.608;2023-01-29T00:35:14;15.80;71.10
22416;DHT22;12204;50.600;4.608;2023-01-29T00:40:18;15.80;71.00
22416;DHT22;12204;50.600;4.608;2023-01-29T00:45:23;15.80;71.10
22416;DHT22;12204;50.600;4.608;2023-01-29T00:50:27;15.80;71.00
22416;DHT22;12204;50.600;4.608;2023-01-29T00:55:32;15.80;71.00
22416;DHT22;12204;50.600;4.608;2023-01-29T01:00:37;15.80;71.00
22416;DHT22;12204;50.600;4.608;2023-01-29T01:05:42;15.80;71.00
22416;DHT22;12204;50.600;4.608;2023-01-29T01:10:45;15.80;71.00
22416;DHT22;12204;50.600;4.608;2023-01-29T01:15:50;15.80;71.00
22416;DHT22;12204;50.600;4.608;2023-01-29T01:20:56;15.80;71.00
22416;DHT22;12204;50.600;4.608;2023-01-29T01:26:01;15.80;71.00
22416;DHT22;12204;50.600;4.608;2023-01-29T01:31:11;15.80;71.00
22416;DHT22;12204;50.600;4.608;2023-01-29T01:36:16;15.80;70.90
22416;DHT22;12204;50.600;4.608;2023-01-29T01:41:21;15.80;71.00
22416;DHT22;12204;50.600;4.608;2023-01-29T01:46:28;15.80;71.00
22416;DHT22;12204;50.600;4.608;2023-01-29T01:51:35;15.80;71.00
22416;DHT22;12204;50.600;4.608;2023-01-29T01:56:47;15.80;70.90
22416;DHT22;12204;50.600;4.608;2023-01-29T02:01:58;15.80;70.90
22416;DHT22;12204;50.600;4.608;2023-01-29T02:07:19;15.70;70.90
22416;DHT22;12204;50.600;4.608;2023-01-29T02:12:42;15.80;71.00
22416;DHT22;12204;50.600;4.608;2023-01-29T02:17:47;15.70;70.90
22416;DHT22;12204;50.600;4.608;2023-01-29T02:23:20;15.70;70.90
22416;DHT22;12204;50.600;4.608;2023-01-29T02:28:44;15.70;70.90
22416;DHT22;12204;50.600;4.608;2023-01-29T02:33:59;15.70;70.90
22416;DHT22;12204;50.600;4.608;2023-01-29T02:39:15;15.70;70.90
22416;DHT22;12204;50.600;4.608;2023-01-29T02:44:33;15.70;70.90
22416;DHT22;12204;50.600;4.608;2023-01-29T02:49:46;15.70;70.90
22416;DHT22;12204;50.600;4.608;2023-01-29T02:54:55;15.70;70.90
22416;DHT22;12204;50.600;4.608;2023-01-29T03:00:08;15.70;70.90
22416;DHT22;12204;50.600;4.608;2023-01-29T03:05:20;15.70;70.90
22416;DHT22;12204;50.600;4.608;2023-01-29T03:10:30;15.70;70.80
22416;DHT22;12204;50.600;4.608;2023-01-29T03:15:42;15.70;70.90
22416;DHT22;12204;50.600;4.608;2023-01-29T03:21:12;15.70;70.90
22416;DHT22;12204;50.600;4.608;2023-01-29T03:26:42;15.70;70.90
22416;DHT22;12204;50.600;4.608;2023-01-29T03:32:11;15.70;70.90
22416;DHT22;12204;50.600;4.608;2023-01-29T03:37:20;15.70;70.90
22416;DHT22;12204;50.600;4.608;2023-01-29T03:42:40;15.70;70.90
22416;DHT22;12204;50.600;4.608;2023-01-29T03:48:02;15.70;70.80
22416;DHT22;12204;50.600;4.608;2023-01-29T03:53:17;15.70;70.90
22416;DHT22;12204;50.600;4.608;2023-01-29T03:58:29;15.70;71.60
22416;DHT22;12204;50.600;4.608;2023-01-29T04:03:47;15.70;70.90
22416;DHT22;12204;50.600;4.608;2023-01-29T04:08:58;15.70;70.90
22416;DHT22;12204;50.600;4.608;2023-01-29T04:14:08;15.60;70.80
22416;DHT22;12204;50.600;4.608;2023-01-29T04:19:14;15.60;70.80
22416;DHT22;12204;50.600;4.608;2023-01-29T04:24:19;15.70;70.80
22416;DHT22;12204;50.600;4.608;2023-01-29T04:29:30;15.60;70.80
22416;DHT22;12204;50.600;4.608;2023-01-29T04:34:59;15.60;70.80
22416;DHT22;12204;50.600;4.608;2023-01-29T04:40:17;15.60;70.80
22416;DHT22;12204;50.600;4.608;2023-01-29T04:45:31;15.60;70.80
22416;DHT22;12204;50.600;4.608;2023-01-29T04:50:48;15.60;70.80
22416;DHT22;12204;50.600;4.608;2023-01-29T04:56:06;15.60;70.70
22416;DHT22;12204;50.600;4.608;2023-01-29T05:01:15;15.60;70.80
22416;DHT22;12204;50.600;4.608;2023-01-29T05:06:23;15.60;70.80
22416;DHT22;12204;50.600;4.608;2023-01-29T05:11:29;15.60;70.70
22416;DHT22;12204;50.600;4.608;2023-01-29T05:16:39;15.60;70.70
22416;DHT22;12204;50.600;4.608;2023-01-29T05:21:50;15.60;70.70
22416;DHT22;12204;50.600;4.608;2023-01-29T05:26:54;15.60;70.80
22416;DHT22;12204;50.600;4.608;2023-01-29T05:32:15;15.60;70.70
22416;DHT22;12204;50.600;4.608;2023-01-29T05:37:20;15.60;70.70
22416;DHT22;12204;50.600;4.608;2023-01-29T05:42:24;15.60;70.70
22416;DHT22;12204;50.600;4.608;2023-01-29T05:47:28;15.60;70.70
22416;DHT22;12204;50.600;4.608;2023-01-29T05:52:33;15.60;70.70
22416;DHT22;12204;50.600;4.608;2023-01-29T05:57:38;15.60;71.50
22416;DHT22;12204;50.600;4.608;2023-01-29T06:02:43;15.60;70.70
22416;DHT22;12204;50.600;4.608;2023-01-29T06:07:48;15.60;70.80
22416;DHT22;12204;50.600;4.608;2023-01-29T06:12:52;15.50;70.80
22416;DHT22;12204;50.600;4.608;2023-01-29T06:17:56;15.50;70.70
22416;DHT22;12204;50.600;4.608;2023-01-29T06:23:01;15.50;70.70
22416;DHT22;12204;50.600;4.608;2023-01-29T06:28:05;15.50;70.60
22416;DHT22;12204;50.600;4.608;2023-01-29T06:33:08;15.50;70.60
22416;DHT22;12204;50.600;4.608;2023-01-29T06:38:13;15.50;70.60
22416;DHT22;12204;50.600;4.608;2023-01-29T06:43:17;15.50;70.70
22416;DHT22;12204;50.600;4.608;2023-01-29T06:48:22;15.50;70.60
22416;DHT22;12204;50.600;4.608;2023-01-29T06:53:28;15.50;70.60
22416;DHT22;12204;50.600;4.608;2023-01-29T06:58:32;15.50;70.60
22416;DHT22;12204;50.600;4.608;2023-01-29T07:03:38;15.50;70.60
22416;DHT22;12204;50.600;4.608;2023-01-29T07:08:44;15.50;70.60
22416;DHT22;12204;50.600;4.608;2023-01-29T07:13:48;15.50;70.60
22416;DHT22;12204;50.600;4.608;2023-01-29T07:18:52;15.50;70.70
22416;DHT22;12204;50.600;4.608;2023-01-29T07:23:57;15.50;70.70
22416;DHT22;12204;50.600;4.608;2023-01-29T07:29:01;15.50;70.60
22416;DHT22;12204;50.600;4.608;2023-01-29T07:34:06;15.50;70.70
22416;DHT22;12204;50.600;4.608;2023-01-29T07:39:11;15.50;70.60
22416;DHT22;12204;50.600;4.608;2023-01-29T07:44:16;15.50;70.60
22416;DHT22;12204;50.600;4.608;2023-01-29T07:49:19;15.50;70.60
22416;DHT22;12204;50.600;4.608;2023-01-29T07:54:24;15.50;70.50
22416;DHT22;12204;50.600;4.608;2023-01-29T07:59:28;15.50;70.60
22416;DHT22;12204;50.600;4.608;2023-01-29T08:04:32;15.50;70.60
22416;DHT22;12204;50.600;4.608;2023-01-29T08:09:37;15.50;70.60
22416;DHT22;12204;50.600;4.608;2023-01-29T08:14:41;15.50;70.60
22416;DHT22;12204;50.600;4.608;2023-01-29T08:19:46;15.50;70.60
22416;DHT22;12204;50.600;4.608;2023-01-29T08:24:51;15.50;70.60
22416;DHT22;12204;50.600;4.608;2023-01-29T08:30:11;15.50;70.50
22416;DHT22;12204;50.600;4.608;2023-01-29T08:35:16;15.50;70.60
22416;DHT22;12204;50.600;4.608;2023-01-29T08:40:21;15.50;70.60
22416;DHT22;12204;50.600;4.608;2023-01-29T08:45:25;15.50;70.60
22416;DHT22;12204;50.600;4.608;2023-01-29T08:50:29;15.50;70.60
22416;DHT22;12204;50.600;4.608;2023-01-29T08:55:38;15.50;70.50
22416;DHT22;12204;50.600;4.608;2023-01-29T09:00:42;15.50;70.50
22416;DHT22;12204;50.600;4.608;2023-01-29T09:05:46;15.50;70.60
22416;DHT22;12204;50.600;4.608;2023-01-29T09:10:51;15.50;70.60
22416;DHT22;12204;50.600;4.608;2023-01-29T09:15:58;15.50;70.60
22416;DHT22;12204;50.600;4.608;2023-01-29T09:21:03;15.50;70.60
22416;DHT22;12204;50.600;4.608;2023-01-29T09:26:12;15.50;70.50
22416;DHT22;12204;50.600;4.608;2023-01-29T09:31:16;15.50;70.50
22416;DHT22;12204;50.600;4.608;2023-01-29T09:36:20;15.50;70.50
22416;DHT22;12204;50.600;4.608;2023-01-29T09:41:37;15.50;70.40
22416;DHT22;12204;50.600;4.608;2023-01-29T09:46:51;15.50;70.50
22416;DHT22;12204;50.600;4.608;2023-01-29T09:52:00;15.50;70.50
22416;DHT22;12204;50.600;4.608;2023-01-29T09:57:10;15.50;70.60
22416;DHT22;12204;50.600;4.608;2023-01-29T10:02:27;15.50;70.50
22416;DHT22;12204;50.600;4.608;2023-01-29T10:13:46;15.50;70.50
22416;DHT22;12204;50.600;4.608;2023-01-29T10:19:12;15.50;70.50
22416;DHT22;12204;50.600;4.608;2023-01-29T10:24:49;15.50;70.60
22416;DHT22;12204;50.600;4.608;2023-01-29T10:29:58;15.50;70.60
22416;DHT22;12204;50.600;4.608;2023-01-29T10:35:19;15.50;70.60
22416;DHT22;12204;50.600;4.608;2023-01-29T10:40:34;15.50;70.50
22416;DHT22;12204;50.600;4.608;2023-01-29T10:45:46;15.50;70.50
22416;DHT22;12204;50.600;4.608;2023-01-29T10:51:02;15.50;70.50
22416;DHT22;12204;50.600;4.608;2023-01-29T10:56:38;15.50;70.60
22416;DHT22;12204;50.600;4.608;2023-01-29T11:01:58;15.50;70.60
22416;DHT22;12204;50.600;4.608;2023-01-29T11:07:04;15.50;70.50
22416;DHT22;12204;50.600;4.608;2023-01-29T11:12:11;15.50;70.60
22416;DHT22;12204;50.600;4.608;2023-01-29T11:17:20;15.50;70.60
22416;DHT22;12204;50.600;4.608;2023-01-29T11:22:26;15.50;70.60
22416;DHT22;12204;50.600;4.608;2023-01-29T11:27:33;15.50;70.60
22416;DHT22;12204;50.600;4.608;2023-01-29T11:32:42;15.50;70.50
22416;DHT22;12204;50.600;4.608;2023-01-29T11:37:46;15.50;70.50
22416;DHT22;12204;50.600;4.608;2023-01-29T11:42:50;15.50;70.60
22416;DHT22;12204;50.600;4.608;2023-01-29T11:47:56;15.50;70.60
22416;DHT22;12204;50.600;4.608;2023-01-29T11:53:01;15.50;70.60
22416;DHT22;12204;50.600;4.608;2023-01-29T11:58:12;15.50;70.60
22416;DHT22;12204;50.600;4.608;2023-01-29T12:03:29;15.50;70.60
22416;DHT22;12204;50.600;4.608;2023-01-29T12:08:38;15.50;71.30
22416;DHT22;12204;50.600;4.608;2023-01-29T12:13:42;15.50;70.60
22416;DHT22;12204;50.600;4.608;2023-01-29T12:18:50;15.50;70.50
22416;DHT22;12204;50.600;4.608;2023-01-29T12:24:00;15.50;70.60
22416;DHT22;12204;50.600;4.608;2023-01-29T12:29:24;15.50;70.60
22416;DHT22;12204;50.600;4.608;2023-01-29T12:34:45;15.50;70.50
22416;DHT22;12204;50.600;4.608;2023-01-29T12:39:53;15.50;70.60
22416;DHT22;12204;50.600;4.608;2023-01-29T12:44:59;15.50;70.60
22416;DHT22;12204;50.600;4.608;2023-01-29T12:50:16;15.50;70.50
22416;DHT22;12204;50.600;4.608;2023-01-29T12:55:26;15.50;70.60
22416;DHT22;12204;50.600;4.608;2023-01-29T13:00:35;15.50;70.60
22416;DHT22;12204;50.600;4.608;2023-01-29T13:05:46;15.50;70.60
22416;DHT22;12204;50.600;4.608;2023-01-29T13:10:53;15.50;70.60
22416;DHT22;12204;50.600;4.608;2023-01-29T13:15:58;15.50;70.60
22416;DHT22;12204;50.600;4.608;2023-01-29T13:21:04;15.50;70.60
22416;DHT22;12204;50.600;4.608;2023-01-29T13:26:08;15.50;70.60
22416;DHT22;12204;50.600;4.608;2023-01-29T13:31:24;15.50;70.60
22416;DHT22;12204;50.600;4.608;2023-01-29T13:36:32;15.50;70.60
22416;DHT22;12204;50.600;4.608;2023-01-29T13:41:38;15.50;70.60
22416;DHT22;12204;50.600;4.608;2023-01-29T13:46:48;15.50;70.60
22416;DHT22;12204;50.600;4.608;2023-01-29T13:51:58;15.50;70.60
22416;DHT22;12204;50.600;4.608;2023-01-29T13:57:35;15.50;70.70
22416;DHT22;12204;50.600;4.608;2023-01-29T14:46:43;15.50;70.70
22416;DHT22;12204;50.600;4.608;2023-01-29T14:52:02;15.50;70.70
22416;DHT22;12204;50.600;4.608;2023-01-29T14:57:11;15.50;70.70
22416;DHT22;12204;50.600;4.608;2023-01-29T15:02:21;15.50;70.70
22416;DHT22;12204;50.600;4.608;2023-01-29T15:07:32;15.50;70.70
22416;DHT22;12204;50.600;4.608;2023-01-29T15:12:46;15.50;70.80
22416;DHT22;12204;50.600;4.608;2023-01-29T15:17:58;15.50;70.80
22416;DHT22;12204;50.600;4.608;2023-01-29T15:23:23;15.50;70.70
22416;DHT22;12204;50.600;4.608;2023-01-29T15:28:29;15.50;70.80
22416;DHT22;12204;50.600;4.608;2023-01-29T15:33:37;15.40;70.70
22416;DHT22;12204;50.600;4.608;2023-01-29T15:38:43;15.50;70.80
22416;DHT22;12204;50.600;4.608;2023-01-29T15:43:48;15.50;70.70
22416;DHT22;12204;50.600;4.608;2023-01-29T15:48:56;15.50;71.50
22416;DHT22;12204;50.600;4.608;2023-01-29T15:54:04;15.50;70.80
22416;DHT22;12204;50.600;4.608;2023-01-29T15:59:17;15.50;70.80
22416;DHT22;12204;50.600;4.608;2023-01-29T16:04:27;15.40;70.70
22416;DHT22;12204;50.600;4.608;2023-01-29T16:09:32;15.50;70.90
22416;DHT22;12204;50.600;4.608;2023-01-29T16:14:36;15.50;70.80
22416;DHT22;12204;50.600;4.608;2023-01-29T16:19:41;15.50;70.80
22416;DHT22;12204;50.600;4.608;2023-01-29T16:24:46;15.50;70.90
22416;DHT22;12204;50.600;4.608;2023-01-29T16:29:54;15.50;70.90
22416;DHT22;12204;50.600;4.608;2023-01-29T16:34:59;15.50;71.00
22416;DHT22;12204;50.600;4.608;2023-01-29T16:40:12;15.50;70.90
22416;DHT22;12204;50.600;4.608;2023-01-29T16:45:25;15.50;70.90
22416;DHT22;12204;50.600;4.608;2023-01-29T16:50:35;15.50;70.90
22416;DHT22;12204;50.600;4.608;2023-01-29T16:56:01;15.50;70.90
22416;DHT22;12204;50.600;4.608;2023-01-29T17:01:09;15.50;70.90
22416;DHT22;12204;50.600;4.608;2023-01-29T17:06:20;15.50;70.90
22416;DHT22;12204;50.600;4.608;2023-01-29T17:11:31;15.50;70.90
22416;DHT22;12204;50.600;4.608;2023-01-29T17:16:48;15.50;70.90
22416;DHT22;12204;50.600;4.608;2023-01-29T17:21:55;15.50;70.90
22416;DHT22;12204;50.600;4.608;2023-01-29T17:27:00;15.40;70.90
22416;DHT22;12204;50.600;4.608;2023-01-29T17:32:04;15.40;70.90
22416;DHT22;12204;50.600;4.608;2023-01-29T17:37:12;15.40;70.80
22416;DHT22;12204;50.600;4.608;2023-01-29T17:42:17;15.50;70.90
22416;DHT22;12204;50.600;4.608;2023-01-29T17:47:21;15.50;70.80
22416;DHT22;12204;50.600;4.608;2023-01-29T17:52:26;15.50;70.90
22416;DHT22;12204;50.600;4.608;2023-01-29T17:57:29;15.50;70.90
22416;DHT22;12204;50.600;4.608;2023-01-29T18:02:33;15.50;70.80
22416;DHT22;12204;50.600;4.608;2023-01-29T18:07:40;15.40;70.80
22416;DHT22;12204;50.600;4.608;2023-01-29T18:12:45;15.40;70.80
22416;DHT22;12204;50.600;4.608;2023-01-29T18:17:49;15.50;70.80
22416;DHT22;12204;50.600;4.608;2023-01-29T18:22:55;15.50;70.90
22416;DHT22;12204;50.600;4.608;2023-01-29T18:27:59;15.40;70.80
22416;DHT22;12204;50.600;4.608;2023-01-29T18:33:03;15.50;70.90
22416;DHT22;12204;50.600;4.608;2023-01-29T18:38:08;15.40;70.80
22416;DHT22;12204;50.600;4.608;2023-01-29T18:43:12;15.40;70.80
22416;DHT22;12204;50.600;4.608;2023-01-29T18:48:17;15.40;70.80
22416;DHT22;12204;50.600;4.608;2023-01-29T18:53:22;15.40;70.90
22416;DHT22;12204;50.600;4.608;2023-01-29T18:58:25;15.40;70.80
22416;DHT22;12204;50.600;4.608;2023-01-29T19:03:38;15.40;70.80
22416;DHT22;12204;50.600;4.608;2023-01-29T19:08:44;15.40;70.90
22416;DHT22;12204;50.600;4.608;2023-01-29T19:13:48;15.40;70.90
22416;DHT22;12204;50.600;4.608;2023-01-29T19:18:52;15.40;70.90
22416;DHT22;12204;50.600;4.608;2023-01-29T19:23:58;15.40;70.90
22416;DHT22;12204;50.600;4.608;2023-01-29T19:29:02;15.40;70.90
22416;DHT22;12204;50.600;4.608;2023-01-29T19:34:06;15.40;70.80
22416;DHT22;12204;50.600;4.608;2023-01-29T19:39:11;15.40;70.80
22416;DHT22;12204;50.600;4.608;2023-01-29T19:44:15;15.40;70.90
22416;DHT22;12204;50.600;4.608;2023-01-29T19:49:19;15.40;70.90
22416;DHT22;12204;50.600;4.608;2023-01-29T19:54:24;15.40;70.90
22416;DHT22;12204;50.600;4.608;2023-01-29T19:59:30;15.40;70.80
22416;DHT22;12204;50.600;4.608;2023-01-29T20:04:34;15.40;70.90
22416;DHT22;12204;50.600;4.608;2023-01-29T20:09:39;15.40;70.80
22416;DHT22;12204;50.600;4.608;2023-01-29T20:14:43;15.40;70.90
22416;DHT22;12204;50.600;4.608;2023-01-29T20:19:49;15.40;70.80
22416;DHT22;12204;50.600;4.608;2023-01-29T20:24:54;15.40;70.80
22416;DHT22;12204;50.600;4.608;2023-01-29T20:29:58;15.40;70.90
22416;DHT22;12204;50.600;4.608;2023-01-29T20:35:03;15.40;70.90
22416;DHT22;12204;50.600;4.608;2023-01-29T20:40:10;15.40;70.90
22416;DHT22;12204;50.600;4.608;2023-01-29T20:45:16;15.40;70.90
22416;DHT22;12204;50.600;4.608;2023-01-29T20:50:20;15.40;70.90
22416;DHT22;12204;50.600;4.608;2023-01-29T20:55:26;15.40;70.90
22416;DHT22;12204;50.600;4.608;2023-01-29T21:00:30;15.40;71.00
22416;DHT22;12204;50.600;4.608;2023-01-29T21:05:33;15.40;70.90
22416;DHT22;12204;50.600;4.608;2023-01-29T21:10:39;15.40;70.90
22416;DHT22;12204;50.600;4.608;2023-01-29T21:15:44;15.40;70.90
22416;DHT22;12204;50.600;4.608;2023-01-29T21:20:48;15.40;70.90
22416;DHT22;12204;50.600;4.608;2023-01-29T21:25:58;15.40;70.90
22416;DHT22;12204;50.600;4.608;2023-01-29T21:31:05;15.40;70.90
22416;DHT22;12204;50.600;4.608;2023-01-29T21:36:11;15.40;70.90
22416;DHT22;12204;50.600;4.608;2023-01-29T21:41:16;15.40;71.00
22416;DHT22;12204;50.600;4.608;2023-01-29T21:46:20;15.40;70.90
22416;DHT22;12204;50.600;4.608;2023-01-29T21:51:23;15.40;70.90
22416;DHT22;12204;50.600;4.608;2023-01-29T21:56:28;15.40;70.90
22416;DHT22;12204;50.600;4.608;2023-01-29T22:01:32;15.40;70.90
22416;DHT22;12204;50.600;4.608;2023-01-29T22:06:39;15.40;71.00
22416;DHT22;12204;50.600;4.608;2023-01-29T22:11:44;15.40;70.90
22416;DHT22;12204;50.600;4.608;2023-01-29T22:16:48;15.40;70.90
22416;DHT22;12204;50.600;4.608;2023-01-29T22:21:52;15.40;71.10
22416;DHT22;12204;50.600;4.608;2023-01-29T22:26:58;15.40;70.90
22416;DHT22;12204;50.600;4.608;2023-01-29T22:32:01;15.40;70.90
22416;DHT22;12204;50.600;4.608;2023-01-29T22:37:06;15.40;70.90
22416;DHT22;12204;50.600;4.608;2023-01-29T22:42:11;15.40;70.90
22416;DHT22;12204;50.600;4.608;2023-01-29T22:47:15;15.40;71.00
22416;DHT22;12204;50.600;4.608;2023-01-29T22:52:20;15.40;70.90
22416;DHT22;12204;50.600;4.608;2023-01-29T22:57:25;15.40;70.90
22416;DHT22;12204;50.600;4.608;2023-01-29T23:02:29;15.40;70.90
22416;DHT22;12204;50.600;4.608;2023-01-29T23:07:33;15.40;70.90
22416;DHT22;12204;50.600;4.608;2023-01-29T23:12:38;15.40;70.80
22416;DHT22;12204;50.600;4.608;2023-01-29T23:17:41;15.40;70.90
22416;DHT22;12204;50.600;4.608;2023-01-29T23:22:46;15.40;70.90
22416;DHT22;12204;50.600;4.608;2023-01-29T23:27:51;15.40;70.90
22416;DHT22;12204;50.600;4.608;2023-01-29T23:32:55;15.40;70.90
22416;DHT22;12204;50.600;4.608;2023-01-29T23:37:59;15.40;70.80
22416;DHT22;12204;50.600;4.608;2023-01-29T23:43:04;15.40;70.90
22416;DHT22;12204;50.600;4.608;2023-01-29T23:48:08;15.40;70.90
22416;DHT22;12204;50.600;4.608;2023-01-29T23:53:12;15.40;70.90
22416;DHT22;12204;50.600;4.608;2023-01-29T23:58:17;15.40;70.90
